Airfield :
LOGIN :

Register | Disclaimer

   EN    FR    IT 

 










Legend :    VFR   Marginal VFR   IFR   Intensive IFR   Very Intensive IFR
Visi :
Ceiling :
>= 8 km
>= 3000ft
5 to 8 km
1000 to 3000 ft
1500m to 5 km
500 to 1000 ft
800 to 1500m
200 to 500 ft
< 800m
< 200 ft
Symbols :   Thunderstorms  Fog  Heavy snow  Heavy precipitations  Wind > 20 kt
SIGMETs :     Misc.  Thunderstorms  Icing  Turbulence  Mountain Waves  Volcanic Ashes






- Airport Elevation : 16 ft
- IATA code : EAS


LESO - San Sebastian Fuenterrabia

CURRENT METAR :
  • 260500Z 17003KT 9999 OVC025 17/14 Q1019

EXPIRED METARs :
  • 260430Z 15003KT 9999 OVC023 17/14 Q1018
  • 260400Z 15002KT 9999 OVC021 17/14 Q1018
  • 260330Z AUTO VRB01KT 9999 OVC021 17/14 Q1018
  • 260300Z AUTO 00000KT 9999 OVC021 17/14 Q1018
  • 260230Z AUTO 00000KT 9999 OVC021 17/14 Q1018
  • 260200Z AUTO VRB02KT 9999 OVC021 17/14 Q1018
  • 260130Z AUTO VRB01KT 9999 OVC021 17/14 Q1018
  • 260100Z AUTO 27003KT 210V290 9999 OVC021 17/14 Q1018
  • 260030Z AUTO 26003KT 200V300 9999 OVC020 17/14 Q1019

TAF TAF LESO
Valid from the 26 at 00:00 until the 27 at 00:00 UTC


252300Z 2600/2624 32008KT 9999 BKN020 TX19/2609Z TN15/2624Z
PROB30
TEMPO 2608/2618 3000 DZ BKN010



MET'MAP, your aeronautical weather chart ! - Copyright ORBIFLY December 2007 - Disclaimer

ORBIFLY MET'MAP TEAM :

Programming & Development : Alexandra Zaïnal
Original concept : Baudouin d'Aumeries
Technical & hardware support : Manuel Goepfert
Assistance : Marc-Olivier Méhu




SOURCES & CREDITS :

   NOAA